MSC Brunella — H3CT — position and weather

sailwx.info

Track history (hours):
 
Tides and Currents Weather Stations Pressure Air Temp Water Temp Dewpoint Dewpoint Depression Visibility Wind Speed Wind Dir Waves Ship Positions

MSC Brunella

Last reported at 2018-Feb-26 00:00 UTC. Time now 2018-Feb-26 00:04 UTC.
Position N 39°14' W 009°53'.

Length 301 m; draft 12.7 m.

Type: Ship (hazmat cat D). MMSI: 374361000.

Date/timePositionNaut miles runAvg speedWind from/ knotsBaromVisibWave heightAir tempDewpointWater temp
2018-Feb-26 00:00N 39°14' W 009°53'1121.4
2018-Feb-25 23:30N 39°03' W 009°53'1121.4
2018-Feb-25 23:00N 38°52' W 009°52'1121.4
2018-Feb-25 22:30N 38°42' W 009°51'1121.6
2018-Feb-25 22:00N 38°31' W 009°49'1121.8
2018-Feb-25 21:30N 38°20' W 009°46'1121.6
2018-Feb-25 21:00N 38°10' W 009°44'1121.5
2018-Feb-25 20:30N 37°59' W 009°41'1121.6
2018-Feb-25 20:00N 37°49' W 009°37'1121.7
2018-Feb-25 19:30N 37°38' W 009°35'21117.2
2018-Feb-25 07:16N 35°57' W 005°44'515.9
2018-Feb-25 06:58N 35°57' W 005°38'714.2
2018-Feb-25 06:30N 35°57' W 005°30'3 6.2
2018-Feb-25 06:00N 35°54' W 005°30'0 0.1
2018-Feb-25 03:01N 35°54' W 005°30'0 0.0
2018-Feb-25 01:24N 35°54' W 005°30'0 0.0
2018-Feb-25 01:00N 35°54' W 005°30'0 0.0
2018-Feb-24 21:30N 35°54' W 005°30'0 0.0
2018-Feb-24 20:49N 35°54' W 005°30'0 0.4
2018-Feb-24 20:21N 35°54' W 005°30'  
Track history (hours):
 
Tides and Currents Weather Stations Pressure Air Temp Water Temp Dewpoint Dewpoint Depression Visibility Wind Speed Wind Dir Waves Ship Positions

MSC Brunella

Last reported at 2018-Feb-26 00:00 UTC. Time now 2018-Feb-26 00:04 UTC.
Position N 39°14' W 009°53'.

Length 301 m; draft 12.7 m.

Type: Ship (hazmat cat D). MMSI: 374361000.

Date/timePositionNaut miles runAvg speedWind from/ knotsBaromVisibWave heightAir tempDewpointWater temp
2018-Feb-26 00:00N 39°14' W 009°53'1121.4
2018-Feb-25 23:30N 39°03' W 009°53'1121.4
2018-Feb-25 23:00N 38°52' W 009°52'1121.4
2018-Feb-25 22:30N 38°42' W 009°51'1121.6
2018-Feb-25 22:00N 38°31' W 009°49'1121.8
2018-Feb-25 21:30N 38°20' W 009°46'1121.6
2018-Feb-25 21:00N 38°10' W 009°44'1121.5
2018-Feb-25 20:30N 37°59' W 009°41'1121.6
2018-Feb-25 20:00N 37°49' W 009°37'1121.7
2018-Feb-25 19:30N 37°38' W 009°35'21117.2
2018-Feb-25 07:16N 35°57' W 005°44'515.9
2018-Feb-25 06:58N 35°57' W 005°38'714.2
2018-Feb-25 06:30N 35°57' W 005°30'3 6.2
2018-Feb-25 06:00N 35°54' W 005°30'0 0.1
2018-Feb-25 03:01N 35°54' W 005°30'0 0.0
2018-Feb-25 01:24N 35°54' W 005°30'0 0.0
2018-Feb-25 01:00N 35°54' W 005°30'0 0.0
2018-Feb-24 21:30N 35°54' W 005°30'0 0.0
2018-Feb-24 20:49N 35°54' W 005°30'0 0.4
2018-Feb-24 20:21N 35°54' W 005°30'  

Dump ship's entire track history